Time;durP1;ratioP1;P1;durP2;ratioP2;P2;SDS_P1;SDS_P2;PMS_P1;PMS_P2;Temp;Humidity;BMP_temperature;BMP_pressure;BME280_temperature;BME280_humidity;BME280_pressure;Samples;Min_cycle;Max_cycle;Signal;HPM_P1;HPM_P2
2022/02/25 00:00:26;;;;;;;39.63;18.70;;;9.70;90.40;;;;;;1905532;75;21090;-48
2022/02/25 00:02:56;;;;;;;36.13;18.42;;;9.80;90.30;;;;;;1905418;75;20996;-47
2022/02/25 00:05:25;;;;;;;41.45;19.45;;;9.80;90.30;;;;;;1905531;74;21019;-47
2022/02/25 00:07:54;;;;;;;35.30;18.48;;;9.80;90.10;;;;;;1905457;75;21027;-47
2022/02/25 00:10:24;;;;;;;40.83;20.23;;;9.80;90.00;;;;;;1905469;75;21082;-48
2022/02/25 00:12:53;;;;;;;40.03;20.43;;;9.70;89.80;;;;;;1905421;75;21023;-47
2022/02/25 00:15:22;;;;;;;41.95;19.87;;;9.70;90.00;;;;;;1905436;75;21144;-47
2022/02/25 00:17:52;;;;;;;41.73;18.85;;;9.60;90.10;;;;;;1905533;75;21254;-47
2022/02/25 00:20:21;;;;;;;40.15;18.52;;;9.60;90.10;;;;;;1905318;74;21020;-47
2022/02/25 00:22:51;;;;;;;43.23;20.48;;;9.50;90.10;;;;;;1905290;75;21101;-47
2022/02/25 00:25:20;;;;;;;36.25;18.90;;;9.50;90.20;;;;;;1905411;75;21105;-47
2022/02/25 00:27:50;;;;;;;39.27;19.25;;;9.50;90.20;;;;;;1905303;75;21035;-47
2022/02/25 00:30:19;;;;;;;38.30;19.50;;;9.50;90.30;;;;;;1905296;75;21092;-47
2022/02/25 00:32:48;;;;;;;41.05;19.37;;;9.50;90.30;;;;;;1905246;75;21031;-47
2022/02/25 00:35:18;;;;;;;37.20;17.40;;;9.60;90.20;;;;;;1905337;75;21014;-47
2022/02/25 00:37:48;;;;;;;42.48;20.45;;;9.60;90.20;;;;;;1905372;75;21023;-47
2022/02/25 00:40:17;;;;;;;38.53;18.52;;;9.60;90.20;;;;;;1905288;74;20991;-47
2022/02/25 00:42:47;;;;;;;37.20;18.82;;;9.60;90.20;;;;;;1905403;75;21023;-48
2022/02/25 00:45:16;;;;;;;39.15;18.45;;;9.60;90.20;;;;;;1905263;75;21020;-47
2022/02/25 00:47:46;;;;;;;35.73;18.27;;;9.60;90.20;;;;;;1905306;75;20995;-47
2022/02/25 00:50:15;;;;;;;38.42;19.57;;;9.60;90.20;;;;;;1905258;75;21032;-47
2022/02/25 00:52:45;;;;;;;36.63;19.32;;;9.70;90.20;;;;;;1905303;74;21164;-46
2022/02/25 00:55:14;;;;;;;38.05;17.75;;;9.70;90.20;;;;;;1905306;75;21015;-47
2022/02/25 00:57:51;;;;;;;37.05;18.35;;;9.70;90.10;;;;;;1905391;75;21067;-47
2022/02/25 01:00:21;;;;;;;39.67;17.20;;;9.70;89.80;;;;;;1905283;74;21097;-47
2022/02/25 01:02:50;;;;;;;33.63;17.48;;;9.70;89.90;;;;;;1905405;75;20999;-47
2022/02/25 01:05:20;;;;;;;33.02;17.48;;;9.70;90.00;;;;;;1905417;75;20992;-47
2022/02/25 01:07:49;;;;;;;32.50;16.55;;;9.60;90.10;;;;;;1905297;75;21019;-47
2022/02/25 01:10:19;;;;;;;34.10;16.85;;;9.70;90.00;;;;;;1905372;74;21027;-47
2022/02/25 01:12:49;;;;;;;31.42;16.32;;;9.60;89.80;;;;;;1905227;75;21101;-49
2022/02/25 01:15:18;;;;;;;32.17;16.62;;;9.60;90.00;;;;;;1905518;75;21019;-47
2022/02/25 01:17:48;;;;;;;36.05;18.17;;;9.70;90.10;;;;;;1905465;74;21019;-47
2022/02/25 01:20:17;;;;;;;30.70;16.82;;;9.70;90.10;;;;;;1905391;75;21097;-47
2022/02/25 01:22:47;;;;;;;34.80;18.90;;;9.70;90.10;;;;;;1905366;75;21059;-47
2022/02/25 01:25:17;;;;;;;30.97;16.67;;;9.70;90.00;;;;;;1905387;75;21044;-47
2022/02/25 01:27:46;;;;;;;34.70;18.60;;;9.70;89.90;;;;;;1905416;74;21122;-47
2022/02/25 01:30:16;;;;;;;32.95;15.83;;;9.70;89.80;;;;;;1905491;75;21023;-47
2022/02/25 01:32:45;;;;;;;30.52;17.20;;;9.70;89.40;;;;;;1905314;75;21003;-47
2022/02/25 01:35:15;;;;;;;36.13;18.17;;;9.60;89.30;;;;;;1905464;74;21097;-47
2022/02/25 01:37:45;;;;;;;35.30;17.50;;;9.60;89.90;;;;;;1905356;75;21047;-46
2022/02/25 01:40:14;;;;;;;31.37;15.23;;;9.50;89.80;;;;;;1905318;75;21027;-47
2022/02/25 01:42:52;;;;;;;31.65;17.65;;;9.60;90.00;;;;;;1905313;75;21093;-47
2022/02/25 01:45:22;;;;;;;30.30;16.70;;;9.60;89.80;;;;;;1905368;75;21028;-47
2022/02/25 01:47:51;;;;;;;30.75;15.28;;;9.60;89.10;;;;;;1905350;75;21126;-47
2022/02/25 01:50:21;;;;;;;32.98;17.45;;;9.50;89.20;;;;;;1905321;75;21031;-47
2022/02/25 01:53:02;;;;;;;33.50;17.37;;;9.40;89.30;;;;;;1905254;74;21043;-46
2022/02/25 01:55:32;;;;;;;30.82;16.87;;;9.40;89.60;;;;;;1905422;75;21023;-48
2022/02/25 01:58:03;;;;;;;32.10;16.90;;;9.40;89.70;;;;;;1905437;75;20999;-46
2022/02/25 02:00:33;;;;;;;27.15;16.00;;;9.40;89.70;;;;;;1905484;74;21023;-47
2022/02/25 02:03:03;;;;;;;28.60;16.37;;;9.40;89.30;;;;;;1905421;75;21047;-46
2022/02/25 02:05:33;;;;;;;31.15;15.65;;;9.30;89.30;;;;;;1905493;75;21085;-47
2022/02/25 02:08:03;;;;;;;40.35;17.77;;;9.30;89.60;;;;;;1905407;75;21201;-47
2022/02/25 02:10:33;;;;;;;33.88;16.87;;;9.30;89.60;;;;;;1905350;74;21058;-47
2022/02/25 02:13:02;;;;;;;37.20;17.17;;;9.30;89.60;;;;;;1905480;74;21027;-46
2022/02/25 02:15:32;;;;;;;34.92;16.93;;;9.30;89.70;;;;;;1905479;75;21101;-47
2022/02/25 02:18:01;;;;;;;31.73;15.48;;;9.30;89.50;;;;;;1905477;75;20999;-47
2022/02/25 02:20:30;;;;;;;35.70;16.75;;;9.20;89.30;;;;;;1905492;75;21144;-47
2022/02/25 02:22:59;;;;;;;28.20;15.55;;;9.20;89.50;;;;;;1905554;74;21446;-47
2022/02/25 02:25:29;;;;;;;28.30;15.93;;;9.20;89.60;;;;;;1905456;75;21085;-47
2022/02/25 02:30:45;;;;;;;29.77;15.30;;;9.20;89.70;;;;;;1905461;75;21047;-47
2022/02/25 02:33:15;;;;;;;27.67;14.80;;;9.20;89.50;;;;;;1905339;75;21019;-47
2022/02/25 02:35:44;;;;;;;32.55;15.20;;;9.20;89.50;;;;;;1905388;75;21495;-48
2022/02/25 02:38:14;;;;;;;30.30;16.07;;;9.20;89.10;;;;;;1905482;75;21188;-46
2022/02/25 02:40:43;;;;;;;26.52;15.05;;;9.10;89.20;;;;;;1905376;75;21114;-47
2022/02/25 02:43:13;;;;;;;33.38;17.67;;;9.10;89.60;;;;;;1905367;75;21101;-46
2022/02/25 02:45:43;;;;;;;30.15;16.77;;;9.10;89.50;;;;;;1905460;75;21059;-48
2022/02/25 02:48:12;;;;;;;26.52;14.45;;;9.10;89.20;;;;;;1905377;74;21028;-46
2022/02/25 02:50:43;;;;;;;26.93;15.63;;;9.10;89.60;;;;;;1905337;74;21035;-47
2022/02/25 02:53:13;;;;;;;31.57;15.80;;;9.00;89.40;;;;;;1905311;74;21090;-47
2022/02/25 02:55:44;;;;;;;32.33;17.52;;;9.00;89.50;;;;;;1905426;75;21035;-47
2022/02/25 02:58:14;;;;;;;30.15;17.02;;;9.00;89.70;;;;;;1905247;74;21168;-47
2022/02/25 03:00:46;;;;;;;32.17;16.30;;;9.10;89.70;;;;;;1905383;75;21083;-47
2022/02/25 03:03:15;;;;;;;27.65;15.08;;;9.10;89.90;;;;;;1905375;75;21032;-46
2022/02/25 03:05:45;;;;;;;30.37;15.40;;;9.10;89.90;;;;;;1905436;75;21145;-47
2022/02/25 03:08:15;;;;;;;29.23;14.95;;;9.20;89.60;;;;;;1905424;75;21470;-48
2022/02/25 03:10:46;;;;;;;36.45;15.90;;;9.10;89.40;;;;;;1905273;74;21051;-46
2022/02/25 03:13:16;;;;;;;29.67;16.05;;;9.10;89.50;;;;;;1905319;75;21027;-47
2022/02/25 03:15:46;;;;;;;30.75;15.68;;;9.10;89.60;;;;;;1905322;75;21097;-47
2022/02/25 03:18:15;;;;;;;26.65;15.85;;;9.10;89.60;;;;;;1905558;74;21142;-46
2022/02/25 03:20:45;;;;;;;31.68;16.27;;;9.10;89.40;;;;;;1905444;75;20999;-47
2022/02/25 03:23:14;;;;;;;32.60;15.53;;;9.10;89.30;;;;;;1905417;75;21089;-46
2022/02/25 03:25:44;;;;;;;26.33;15.23;;;9.10;89.40;;;;;;1905397;74;21097;-46
2022/02/25 03:28:13;;;;;;;30.97;15.60;;;9.10;89.40;;;;;;1905436;75;21067;-47
2022/02/25 03:30:42;;;;;;;29.50;16.35;;;9.10;89.30;;;;;;1905285;74;20996;-46
2022/02/25 03:33:12;;;;;;;29.23;16.00;;;9.00;89.10;;;;;;1905425;75;20995;-47
2022/02/25 03:35:41;;;;;;;32.78;16.82;;;9.00;89.30;;;;;;1905379;75;21027;-47
2022/02/25 03:38:10;;;;;;;35.30;16.85;;;9.00;89.70;;;;;;1905279;75;21082;-47
2022/02/25 03:40:39;;;;;;;27.60;15.30;;;9.00;89.70;;;;;;1905253;75;21094;-47
2022/02/25 03:43:09;;;;;;;29.48;15.85;;;9.10;89.60;;;;;;1905348;75;21448;-47
2022/02/25 03:45:38;;;;;;;30.10;16.20;;;9.10;89.40;;;;;;1905214;74;21070;-47
2022/02/25 03:48:07;;;;;;;30.27;15.30;;;9.10;89.40;;;;;;1905237;75;21016;-48
2022/02/25 03:50:38;;;;;;;29.98;16.70;;;9.10;89.40;;;;;;1905208;75;21024;-47
2022/02/25 03:53:08;;;;;;;31.25;16.80;;;9.10;89.60;;;;;;1905327;74;20991;-46
2022/02/25 03:55:37;;;;;;;28.40;14.55;;;9.10;89.40;;;;;;1905263;75;21023;-47
2022/02/25 03:58:06;;;;;;;32.05;16.55;;;9.10;89.30;;;;;;1905264;74;21023;-47
2022/02/25 04:00:36;;;;;;;27.67;15.45;;;9.10;89.00;;;;;;1905453;74;21023;-47
2022/02/25 04:03:06;;;;;;;32.65;15.70;;;9.00;89.40;;;;;;1905243;75;21105;-47
2022/02/25 04:05:35;;;;;;;32.98;16.75;;;9.00;89.50;;;;;;1905192;75;21093;-47
2022/02/25 04:08:04;;;;;;;33.05;15.32;;;9.10;89.80;;;;;;1905323;74;21486;-46
2022/02/25 04:10:35;;;;;;;30.50;16.97;;;9.10;89.40;;;;;;1905294;75;21051;-47
2022/02/25 04:13:05;;;;;;;31.25;16.02;;;9.10;89.20;;;;;;1905190;75;21107;-47
2022/02/25 04:15:34;;;;;;;28.77;15.45;;;9.00;89.20;;;;;;1905215;75;21027;-47
2022/02/25 04:18:04;;;;;;;29.87;16.90;;;9.00;89.30;;;;;;1905237;74;21071;-47
2022/02/25 04:20:33;;;;;;;34.53;16.67;;;8.90;89.40;;;;;;1905194;75;21132;-47
2022/02/25 04:23:03;;;;;;;35.40;17.15;;;8.90;89.70;;;;;;1905325;75;21027;-48
2022/02/25 04:25:32;;;;;;;30.35;15.98;;;8.90;89.70;;;;;;1905260;74;21023;-46
2022/02/25 04:28:02;;;;;;;30.32;17.75;;;9.00;89.60;;;;;;1905204;75;21016;-47
2022/02/25 04:30:32;;;;;;;27.80;15.93;;;9.00;89.60;;;;;;1905134;75;20999;-47
2022/02/25 04:33:01;;;;;;;34.08;16.15;;;9.00;89.50;;;;;;1905227;75;21023;-46
2022/02/25 04:35:31;;;;;;;32.42;15.85;;;8.90;89.30;;;;;;1905288;75;21019;-47
2022/02/25 04:38:00;;;;;;;30.50;16.73;;;8.90;89.50;;;;;;1905348;75;21109;-46
2022/02/25 04:40:29;;;;;;;34.88;17.35;;;8.90;89.40;;;;;;1905169;75;21031;-47
2022/02/25 04:42:58;;;;;;;32.00;16.42;;;8.80;89.70;;;;;;1905195;74;21031;-47
2022/02/25 04:45:28;;;;;;;34.65;17.42;;;8.80;89.90;;;;;;1905230;75;21098;-48
2022/02/25 04:47:57;;;;;;;31.68;17.12;;;8.90;90.00;;;;;;1905440;75;21019;-47
2022/02/25 04:50:27;;;;;;;34.13;16.57;;;8.90;90.00;;;;;;1905330;74;21101;-47
2022/02/25 04:52:57;;;;;;;39.65;17.42;;;9.00;89.90;;;;;;1905326;75;21011;-46
2022/02/25 04:55:26;;;;;;;31.02;16.25;;;9.00;90.00;;;;;;1905252;75;21101;-48
2022/02/25 04:57:56;;;;;;;27.13;15.05;;;9.10;89.70;;;;;;1905293;74;21097;-47
2022/02/25 05:00:25;;;;;;;32.05;16.95;;;9.10;89.60;;;;;;1905299;75;21110;-47
2022/02/25 05:02:55;;;;;;;39.18;18.98;;;9.10;89.50;;;;;;1905189;75;21074;-47
2022/02/25 05:05:24;;;;;;;32.15;16.35;;;9.10;89.80;;;;;;1905140;75;21066;-47
2022/02/25 05:07:53;;;;;;;36.77;18.20;;;9.00;89.70;;;;;;1905265;75;21469;-48
2022/02/25 05:10:23;;;;;;;32.93;16.48;;;9.10;89.60;;;;;;1905221;75;21110;-48
2022/02/25 05:12:52;;;;;;;28.35;16.95;;;9.10;89.40;;;;;;1905039;75;20999;-46
2022/02/25 05:20:56;;;;;;;31.87;17.73;;;9.10;88.70;;;;;;1905052;75;21023;-47
2022/02/25 05:23:25;;;;;;;35.45;18.30;;;9.00;88.60;;;;;;1905262;75;20999;-48
2022/02/25 05:25:54;;;;;;;31.77;16.95;;;8.90;89.00;;;;;;1905151;74;21140;-47
2022/02/25 05:28:24;;;;;;;34.13;18.35;;;8.90;89.50;;;;;;1905233;75;20999;-48
2022/02/25 05:30:53;;;;;;;35.70;18.92;;;8.90;89.30;;;;;;1905286;74;21095;-48
2022/02/25 05:33:23;;;;;;;30.12;16.97;;;8.90;89.50;;;;;;1905238;75;21023;-47
2022/02/25 05:35:52;;;;;;;33.92;18.57;;;8.90;89.50;;;;;;1905395;74;21051;-47
2022/02/25 05:38:22;;;;;;;36.30;18.55;;;8.90;89.50;;;;;;1905374;75;21023;-47
2022/02/25 05:40:52;;;;;;;37.55;20.72;;;8.90;89.50;;;;;;1905416;75;21015;-47
2022/02/25 05:43:22;;;;;;;31.37;18.07;;;8.90;89.10;;;;;;1905579;75;21039;-47
2022/02/25 05:45:51;;;;;;;38.28;19.75;;;8.80;89.10;;;;;;1905433;75;21023;-47
2022/02/25 05:48:20;;;;;;;29.98;16.37;;;8.80;89.10;;;;;;1905309;74;21047;-47
2022/02/25 05:50:50;;;;;;;37.53;20.57;;;8.70;89.00;;;;;;1905285;75;21023;-48
2022/02/25 05:53:20;;;;;;;40.90;18.85;;;8.70;89.00;;;;;;1905198;75;21003;-47
2022/02/25 05:55:49;;;;;;;41.42;19.52;;;8.60;89.20;;;;;;1905239;75;21027;-48
2022/02/25 05:58:18;;;;;;;25.05;14.35;;;8.60;89.20;;;;;;1905165;74;21027;-48
2022/02/25 06:00:48;;;;;;;34.53;19.02;;;8.50;89.10;;;;;;1905264;74;21489;-47
2022/02/25 06:03:18;;;;;;;34.20;18.77;;;8.50;89.20;;;;;;1905256;75;21047;-47
2022/02/25 06:05:47;;;;;;;29.57;15.90;;;8.50;89.30;;;;;;1905241;74;21089;-48
2022/02/25 06:08:16;;;;;;;31.10;17.23;;;8.40;89.20;;;;;;1905352;75;21031;-48
2022/02/25 06:10:46;;;;;;;22.25;13.00;;;8.40;89.00;;;;;;1905341;75;21031;-47
2022/02/25 06:13:15;;;;;;;32.93;18.82;;;8.40;88.90;;;;;;1905193;74;21023;-47
2022/02/25 06:15:46;;;;;;;35.00;19.75;;;8.30;88.70;;;;;;1905215;75;21070;-47
2022/02/25 06:18:17;;;;;;;23.57;12.43;;;8.30;89.20;;;;;;1905370;75;21047;-47
2022/02/25 06:20:46;;;;;;;41.65;21.50;;;8.30;89.00;;;;;;1905262;74;21008;-48
2022/02/25 06:23:18;;;;;;;32.53;19.15;;;8.30;88.80;;;;;;1905335;75;21047;-47
2022/02/25 06:25:47;;;;;;;34.58;18.15;;;8.30;88.40;;;;;;1905217;75;20996;-48
2022/02/25 06:28:16;;;;;;;29.35;17.65;;;8.40;88.40;;;;;;1905269;75;21066;-47
2022/02/25 06:30:45;;;;;;;35.13;18.57;;;8.40;87.80;;;;;;1905338;75;20999;-48
2022/02/25 06:33:15;;;;;;;31.40;16.15;;;8.40;87.80;;;;;;1905217;75;21066;-48
2022/02/25 06:35:44;;;;;;;31.57;16.42;;;8.40;87.80;;;;;;1905407;75;21047;-48
2022/02/25 06:38:13;;;;;;;27.67;16.73;;;8.40;87.30;;;;;;1905345;75;21043;-47
2022/02/25 06:40:42;;;;;;;29.90;17.62;;;8.40;87.40;;;;;;1905408;75;21023;-47
2022/02/25 06:43:12;;;;;;;33.02;17.98;;;8.40;87.60;;;;;;1905417;75;21524;-47
2022/02/25 06:45:41;;;;;;;36.13;17.85;;;8.40;87.30;;;;;;1905324;74;21100;-47
2022/02/25 06:48:10;;;;;;;33.35;18.15;;;8.50;87.20;;;;;;1917808;74;21128;-48
2022/02/25 06:50:40;;;;;;;31.97;17.80;;;8.40;87.00;;;;;;1924782;74;21022;-46
2022/02/25 06:53:09;;;;;;;26.10;15.08;;;8.50;86.60;;;;;;1924626;74;21022;-48
2022/02/25 06:55:39;;;;;;;28.57;15.68;;;8.40;86.10;;;;;;1924764;74;21477;-48
2022/02/25 06:58:08;;;;;;;34.27;15.88;;;8.40;86.50;;;;;;1924732;74;21027;-47
2022/02/25 07:00:39;;;;;;;32.85;17.65;;;8.40;86.50;;;;;;1924640;74;21034;-48
2022/02/25 07:03:08;;;;;;;32.10;17.00;;;8.40;86.10;;;;;;1924680;74;21111;-47
2022/02/25 07:05:39;;;;;;;34.03;16.80;;;8.50;86.50;;;;;;1924744;74;21027;-49
2022/02/25 07:08:09;;;;;;;36.80;18.60;;;8.50;86.50;;;;;;1924727;74;21038;-48
2022/02/25 07:10:39;;;;;;;30.95;17.30;;;8.60;86.50;;;;;;1924594;74;20998;-48
2022/02/25 07:13:10;;;;;;;26.62;16.82;;;8.60;85.70;;;;;;1924595;74;21042;-47
2022/02/25 07:15:44;;;;;;;24.15;13.25;;;8.60;84.80;;;;;;1924536;74;21022;-47
2022/02/25 07:18:13;;;;;;;31.65;18.25;;;8.60;84.70;;;;;;1923508;74;20999;-47
2022/02/25 07:20:42;;;;;;;33.10;16.27;;;8.60;85.70;;;;;;1924699;74;21497;-47
2022/02/25 07:23:12;;;;;;;27.10;14.45;;;8.60;84.60;;;;;;1924611;74;21031;-47
2022/02/25 07:25:42;;;;;;;31.45;16.85;;;8.60;84.60;;;;;;1924717;74;21023;-47
2022/02/25 07:28:11;;;;;;;29.60;17.30;;;8.60;84.70;;;;;;1924712;74;21438;-49
2022/02/25 07:30:41;;;;;;;42.50;22.27;;;8.60;84.90;;;;;;1924682;74;20995;-48
2022/02/25 07:33:11;;;;;;;30.95;15.23;;;8.70;84.90;;;;;;1924541;74;21023;-47
2022/02/25 07:35:40;;;;;;;22.95;14.98;;;8.70;84.50;;;;;;1924584;74;21019;-47
2022/02/25 07:38:09;;;;;;;30.95;16.48;;;8.70;83.80;;;;;;1924703;74;21104;-47
2022/02/25 07:40:39;;;;;;;27.85;15.75;;;8.80;84.00;;;;;;1924519;74;21105;-47
2022/02/25 07:43:10;;;;;;;54.38;29.02;;;8.80;83.40;;;;;;1924665;74;21018;-48
2022/02/25 07:45:39;;;;;;;31.30;16.65;;;8.70;83.30;;;;;;1924585;74;21034;-48
2022/02/25 07:48:08;;;;;;;38.28;20.20;;;8.80;84.30;;;;;;1924579;74;21055;-47
2022/02/25 07:50:38;;;;;;;26.07;13.62;;;8.80;83.50;;;;;;1924648;74;21559;-47
2022/02/25 07:53:07;;;;;;;32.33;19.07;;;8.80;83.00;;;;;;1924457;74;20990;-47
2022/02/25 07:55:37;;;;;;;29.15;16.23;;;8.80;83.60;;;;;;1924635;74;21035;-47
2022/02/25 07:58:06;;;;;;;33.33;17.25;;;8.80;83.20;;;;;;1924675;74;21582;-47
2022/02/25 08:00:35;;;;;;;28.02;15.20;;;8.80;83.20;;;;;;1924600;74;21093;-47
2022/02/25 08:03:05;;;;;;;29.40;15.68;;;8.90;83.40;;;;;;1924730;74;21026;-48
2022/02/25 08:05:35;;;;;;;33.05;17.12;;;8.90;83.80;;;;;;1924733;74;21042;-47
2022/02/25 08:08:07;;;;;;;36.95;17.77;;;9.00;83.70;;;;;;1924780;74;21023;-48
2022/02/25 08:10:37;;;;;;;36.90;16.97;;;9.00;83.40;;;;;;1924639;74;21501;-47
2022/02/25 08:13:08;;;;;;;37.15;18.70;;;9.10;83.40;;;;;;1924537;74;21023;-47
2022/02/25 08:15:37;;;;;;;45.00;20.97;;;9.10;83.10;;;;;;1924582;74;21104;-49
2022/02/25 08:18:08;;;;;;;29.63;14.33;;;9.20;83.40;;;;;;1924036;74;21186;-48
2022/02/25 08:20:38;;;;;;;24.75;13.38;;;9.30;85.70;;;;;;1923495;74;21062;-47
2022/02/25 08:23:09;;;;;;;29.87;16.70;;;9.50;85.40;;;;;;1924085;74;21039;-49
2022/02/25 08:25:38;;;;;;;34.65;16.30;;;9.70;83.00;;;;;;1924016;74;21023;-50
2022/02/25 08:28:09;;;;;;;32.83;17.82;;;9.70;82.80;;;;;;1923852;74;21054;-53
2022/02/25 08:30:40;;;;;;;39.10;19.65;;;9.60;82.70;;;;;;1923905;74;21066;-52
2022/02/25 08:33:11;;;;;;;34.15;17.50;;;9.60;82.40;;;;;;1923666;74;21124;-51
2022/02/25 08:35:40;;;;;;;41.70;23.00;;;9.60;83.20;;;;;;1923922;74;21034;-55
2022/02/25 08:38:10;;;;;;;34.58;19.07;;;9.60;82.70;;;;;;1923956;74;21072;-47
2022/02/25 08:40:40;;;;;;;33.95;18.55;;;9.60;83.00;;;;;;1926476;73;21179;-50
2022/02/25 08:43:10;;;;;;;35.15;20.55;;;9.60;82.30;;;;;;1923888;74;21159;-54
2022/02/25 08:45:41;;;;;;;42.20;20.70;;;9.50;81.90;;;;;;1923937;74;21084;-53
2022/02/25 08:48:11;;;;;;;29.45;16.65;;;9.60;82.80;;;;;;1921198;74;21034;-49
2022/02/25 08:50:41;;;;;;;36.75;19.07;;;9.50;82.30;;;;;;1901266;75;21078;-48
2022/02/25 08:53:11;;;;;;;32.67;18.37;;;9.60;82.70;;;;;;1901393;75;21097;-51
2022/02/25 08:55:40;;;;;;;32.15;19.02;;;9.60;82.70;;;;;;1901213;75;21050;-51
2022/02/25 08:58:10;;;;;;;34.60;19.67;;;9.60;82.30;;;;;;1901541;75;21007;-48
2022/02/25 09:00:39;;;;;;;31.48;18.48;;;9.70;82.90;;;;;;1901297;75;21035;-55
2022/02/25 09:03:09;;;;;;;36.03;19.42;;;9.70;82.30;;;;;;1901256;75;21093;-53
2022/02/25 09:05:38;;;;;;;39.03;21.45;;;9.70;81.80;;;;;;1901345;75;21030;-49
2022/02/25 09:08:08;;;;;;;39.33;20.85;;;9.80;81.30;;;;;;1901283;75;21092;-50
2022/02/25 09:10:37;;;;;;;35.60;20.48;;;9.80;81.60;;;;;;1901163;75;21176;-52
2022/02/25 09:13:06;;;;;;;36.25;21.15;;;9.80;81.50;;;;;;1901424;75;21050;-49
2022/02/25 09:15:36;;;;;;;35.25;19.30;;;9.90;82.00;;;;;;1901323;75;21622;-50
2022/02/25 09:18:05;;;;;;;30.82;18.65;;;9.90;81.20;;;;;;1901358;75;21042;-51
2022/02/25 09:20:35;;;;;;;32.25;16.73;;;9.90;80.80;;;;;;1901536;75;21027;-52
2022/02/25 09:23:04;;;;;;;36.58;20.55;;;10.00;80.40;;;;;;1901449;75;21066;-48
2022/02/25 09:25:33;;;;;;;34.13;19.92;;;10.10;80.90;;;;;;1901501;75;21430;-48
2022/02/25 09:28:03;;;;;;;33.35;18.20;;;10.10;80.90;;;;;;1901413;75;21159;-50
2022/02/25 09:30:33;;;;;;;65.60;22.95;;;10.20;79.70;;;;;;1901251;75;21176;-48
2022/02/25 09:33:02;;;;;;;35.80;20.60;;;10.20;79.80;;;;;;1901269;75;21062;-47
2022/02/25 09:35:31;;;;;;;38.78;22.70;;;10.30;79.30;;;;;;1901260;75;21132;-48
2022/02/25 09:38:01;;;;;;;32.65;19.57;;;10.30;79.20;;;;;;1901233;75;21054;-49
2022/02/25 09:40:30;;;;;;;36.03;21.68;;;10.40;78.80;;;;;;1901097;75;21034;-46
2022/02/25 09:43:00;;;;;;;36.35;22.35;;;10.40;79.30;;;;;;1901378;75;21038;-49
2022/02/25 09:45:31;;;;;;;35.58;21.25;;;10.50;79.60;;;;;;1901320;75;21035;-48
2022/02/25 09:48:01;;;;;;;35.58;19.90;;;10.50;79.40;;;;;;1900839;75;21121;-50
2022/02/25 09:50:31;;;;;;;37.98;20.32;;;10.60;78.20;;;;;;1901175;75;21168;-47
2022/02/25 09:53:00;;;;;;;30.80;19.55;;;10.70;78.90;;;;;;1901369;75;21027;-48
2022/02/25 09:55:32;;;;;;;39.92;21.33;;;10.70;78.70;;;;;;1901347;75;21046;-48
2022/02/25 09:58:04;;;;;;;38.10;19.75;;;10.80;78.00;;;;;;1901330;75;21003;-47
2022/02/25 10:00:35;;;;;;;38.50;21.33;;;10.80;77.30;;;;;;1901456;75;20999;-47
2022/02/25 10:03:10;;;;;;;33.15;20.20;;;10.90;77.40;;;;;;1901328;75;21082;-49
2022/02/25 10:05:39;;;;;;;33.10;18.57;;;10.90;76.90;;;;;;1900365;75;21102;-48
2022/02/25 10:08:17;;;;;;;34.50;20.77;;;11.00;76.60;;;;;;1901321;75;21094;-47
2022/02/25 10:10:52;;;;;;;43.17;19.42;;;11.00;77.80;;;;;;1901169;75;21117;-47
2022/02/25 10:13:24;;;;;;;30.57;20.05;;;11.10;76.90;;;;;;1901239;75;21031;-50
2022/02/25 10:15:56;;;;;;;29.60;17.82;;;11.10;76.60;;;;;;1901455;75;21022;-52
2022/02/25 10:18:28;;;;;;;33.75;17.80;;;11.20;76.20;;;;;;1901336;75;21054;-52
2022/02/25 10:21:07;;;;;;;26.17;15.43;;;11.20;75.50;;;;;;1901475;75;21104;-53
2022/02/25 10:23:45;;;;;;;26.48;17.25;;;11.20;75.00;;;;;;1901936;75;21015;-48
2022/02/25 10:26:16;;;;;;;19.12;12.50;;;11.20;75.80;;;;;;1900588;75;21520;-55
2022/02/25 10:28:48;;;;;;;26.95;18.00;;;11.20;74.60;;;;;;1902296;75;21022;-54
2022/02/25 10:31:25;;;;;;;33.13;18.30;;;11.20;74.70;;;;;;1902196;75;21042;-54
2022/02/25 10:34:06;;;;;;;30.15;16.50;;;11.20;75.50;;;;;;1902001;75;21035;-54
2022/02/25 10:36:50;;;;;;;39.10;18.48;;;11.20;75.00;;;;;;1902243;75;21050;-53
2022/02/25 10:39:29;;;;;;;47.50;19.57;;;11.20;75.60;;;;;;1902073;75;21096;-52
2022/02/25 10:42:06;;;;;;;27.37;16.82;;;11.20;75.90;;;;;;1902063;75;21131;-54
2022/02/25 10:44:40;;;;;;;27.55;16.30;;;11.30;75.50;;;;;;1902150;75;21109;-53
2022/02/25 10:47:15;;;;;;;27.10;14.28;;;11.30;74.80;;;;;;1902360;75;21054;-54
2022/02/25 10:49:45;;;;;;;33.80;17.12;;;11.40;73.90;;;;;;1904227;75;21106;-52
2022/02/25 10:52:22;;;;;;;19.57;11.22;;;11.30;74.70;;;;;;1909297;75;21023;-54
2022/02/25 10:54:52;;;;;;;27.98;16.07;;;11.30;73.70;;;;;;1909369;75;21027;-53
2022/02/25 10:57:22;;;;;;;40.45;25.02;;;11.30;74.80;;;;;;1909410;75;21046;-53
2022/02/25 10:59:52;;;;;;;31.75;19.95;;;11.30;74.80;;;;;;1909388;75;21006;-52
2022/02/25 11:02:32;;;;;;;31.57;20.32;;;11.40;74.70;;;;;;1909405;75;21055;-53
2022/02/25 11:05:05;;;;;;;27.67;16.80;;;11.40;74.90;;;;;;1909268;75;21108;-53
2022/02/25 11:07:35;;;;;;;26.40;16.60;;;11.50;75.10;;;;;;1909503;75;21019;-54
2022/02/25 11:10:06;;;;;;;37.63;18.05;;;11.70;74.80;;;;;;1909278;75;21028;-55
2022/02/25 11:12:40;;;;;;;29.50;19.10;;;11.70;74.10;;;;;;1909400;75;21147;-54
2022/02/25 11:15:11;;;;;;;17.52;10.82;;;11.80;74.30;;;;;;1909301;75;21096;-53
2022/02/25 11:17:42;;;;;;;26.70;16.10;;;11.80;72.80;;;;;;1909301;75;21034;-54
2022/02/25 11:20:12;;;;;;;23.07;11.73;;;11.70;73.20;;;;;;1909344;75;21027;-53
2022/02/25 11:22:43;;;;;;;26.70;15.30;;;11.70;72.50;;;;;;1909308;75;21038;-53
2022/02/25 11:25:16;;;;;;;28.55;15.80;;;11.60;73.20;;;;;;1909466;75;21035;-53
2022/02/25 11:27:47;;;;;;;22.85;15.43;;;11.60;73.70;;;;;;1909411;75;21006;-52
2022/02/25 11:30:18;;;;;;;18.65;12.23;;;11.50;73.20;;;;;;1909280;74;21023;-54
2022/02/25 11:32:59;;;;;;;23.73;14.53;;;11.60;72.70;;;;;;1909291;75;21477;-52
2022/02/25 11:35:32;;;;;;;23.10;14.40;;;11.50;73.10;;;;;;1909361;75;21543;-52
2022/02/25 11:38:10;;;;;;;24.18;14.78;;;11.50;72.90;;;;;;1909383;75;21023;-53
2022/02/25 11:40:51;;;;;;;27.05;15.63;;;11.50;73.10;;;;;;1909227;75;21078;-52
2022/02/25 11:43:39;;;;;;;23.60;14.43;;;11.40;72.50;;;;;;1909419;75;21062;-52
2022/02/25 11:46:11;;;;;;;21.15;12.88;;;11.40;73.70;;;;;;1909277;75;21194;-52
2022/02/25 11:48:52;;;;;;;23.45;15.55;;;11.40;73.30;;;;;;1909377;75;21469;-53
2022/02/25 11:51:39;;;;;;;30.05;14.30;;;11.50;73.10;;;;;;1915648;75;21065;-52
2022/02/25 11:54:27;;;;;;;21.42;13.05;;;11.50;73.60;;;;;;1918536;75;21034;-53
2022/02/25 11:57:05;;;;;;;26.80;14.53;;;11.60;72.90;;;;;;1918505;75;21442;-51
2022/02/25 11:59:37;;;;;;;23.35;14.10;;;11.60;72.30;;;;;;1918590;75;21049;-52
2022/02/25 12:02:12;;;;;;;15.65;8.53;;;11.50;72.20;;;;;;1918688;74;21054;-52
2022/02/25 12:04:43;;;;;;;22.82;14.70;;;11.50;71.90;;;;;;1918885;74;21034;-52
2022/02/25 12:07:20;;;;;;;26.37;14.28;;;11.50;73.10;;;;;;1918665;75;21018;-50
2022/02/25 12:10:10;;;;;;;22.07;12.60;;;11.50;73.10;;;;;;1918448;75;21030;-52
2022/02/25 12:13:04;;;;;;;21.85;13.05;;;11.50;72.50;;;;;;1842219;75;21026;-52
2022/02/25 12:15:38;;;;;;;17.65;10.68;;;11.60;72.90;;;;;;1917179;75;21034;-51
2022/02/25 12:18:10;;;;;;;22.90;13.85;;;11.60;72.20;;;;;;1918468;75;21034;-53
2022/02/25 12:20:44;;;;;;;22.77;13.43;;;11.50;72.60;;;;;;1918586;75;21050;-53
2022/02/25 12:23:15;;;;;;;22.52;13.35;;;11.50;72.90;;;;;;1918495;75;21030;-53
2022/02/25 12:25:57;;;;;;;16.42;9.73;;;11.50;73.40;;;;;;1918521;75;21030;-49
2022/02/25 12:28:29;;;;;;;25.35;13.55;;;11.50;72.60;;;;;;1918499;75;21092;-53
2022/02/25 12:31:04;;;;;;;26.82;14.83;;;11.50;72.80;;;;;;1918641;75;21076;-50
2022/02/25 12:33:48;;;;;;;24.15;12.33;;;11.40;73.10;;;;;;1918585;74;21099;-52
2022/02/25 12:36:32;;;;;;;26.52;12.93;;;11.40;72.80;;;;;;1918573;75;21111;-52
2022/02/25 12:39:10;;;;;;;26.02;13.72;;;11.30;73.30;;;;;;1918400;75;21129;-51
2022/02/25 12:41:41;;;;;;;24.35;13.80;;;11.30;73.50;;;;;;1918498;74;21124;-52
2022/02/25 12:44:13;;;;;;;24.80;14.28;;;11.30;73.90;;;;;;1918572;74;21113;-52
2022/02/25 12:46:55;;;;;;;25.92;13.10;;;11.30;74.10;;;;;;1918660;75;21053;-52
2022/02/25 12:49:27;;;;;;;29.55;15.78;;;11.30;74.00;;;;;;1918454;75;21504;-49
2022/02/25 12:51:59;;;;;;;26.07;16.73;;;11.30;74.10;;;;;;1912268;75;21289;-52
2022/02/25 12:54:30;;;;;;;21.30;11.35;;;11.30;74.10;;;;;;1909257;75;21074;-49
2022/02/25 12:57:01;;;;;;;32.15;15.40;;;11.30;74.10;;;;;;1909304;75;21035;-52
2022/02/25 12:59:45;;;;;;;21.85;12.53;;;11.30;74.10;;;;;;1909212;75;21023;-52